Time;durP1;ratioP1;P1;durP2;ratioP2;P2;SDS_P1;SDS_P2;PMS_P1;PMS_P2;Temp;Humidity;BMP_temperature;BMP_pressure;BME280_temperature;BME280_humidity;BME280_pressure;Samples;Min_cycle;Max_cycle;Signal;HPM_P1;HPM_P2
2024/01/11 00:02:54;;;;;;;111.53;46.03;;;-11.80;23.10;;;;;;8238592;28;20197;-66
2024/01/11 00:06:54;;;;;;;113.60;46.83;;;-11.80;21.90;;;;;;8232334;28;20227;-66
2024/01/11 00:10:55;;;;;;;126.40;46.23;;;-11.80;22.90;;;;;;8239453;28;20276;-64
2024/01/11 00:14:56;;;;;;;138.77;51.87;;;-11.70;22.80;;;;;;8234079;28;20212;-65
2024/01/11 00:18:57;;;;;;;129.07;49.53;;;-11.60;31.50;;;;;;8238089;28;20207;-66
2024/01/11 00:23:01;;;;;;;120.30;48.33;;;-11.40;45.60;;;;;;8239616;28;20262;-66
2024/01/11 00:27:02;;;;;;;145.53;55.50;;;-11.40;41.50;;;;;;8239020;28;20246;-65
2024/01/11 00:31:02;;;;;;;133.87;52.20;;;-11.20;61.00;;;;;;8238444;28;20216;-66
2024/01/11 00:35:03;;;;;;;117.37;52.43;;;-11.10;89.30;;;;;;8251350;28;20184;-66
2024/01/11 00:39:04;;;;;;;119.50;46.37;;;-11.20;59.10;;;;;;8248729;28;20187;-66
2024/01/11 00:43:05;;;;;;;112.67;46.17;;;-11.30;47.60;;;;;;8237348;28;20195;-65
2024/01/11 00:47:06;;;;;;;115.80;45.13;;;-11.40;46.00;;;;;;8234970;28;20221;-65
2024/01/11 00:51:07;;;;;;;115.27;45.23;;;-11.40;53.60;;;;;;8253433;28;20217;-64
2024/01/11 00:55:07;;;;;;;119.80;49.50;;;-11.40;55.30;;;;;;8250471;28;20188;-65
2024/01/11 00:59:08;;;;;;;137.70;51.03;;;-11.20;99.90;;;;;;8260913;28;20219;-66
2024/01/11 01:03:09;;;;;;;120.03;50.37;;;-10.90;99.90;;;;;;8232018;28;20193;-66
2024/01/11 01:07:10;;;;;;;125.13;50.43;;;-10.60;99.90;;;;;;8232732;28;20221;-66
2024/01/11 01:11:10;;;;;;;154.33;55.17;;;-10.20;99.90;;;;;;8225623;28;20245;-66
2024/01/11 01:15:11;;;;;;;145.93;56.07;;;-10.10;99.90;;;;;;8228035;28;20186;-66
2024/01/11 01:19:12;;;;;;;142.67;57.30;;;-10.00;99.90;;;;;;8231232;28;20190;-66
2024/01/11 01:23:13;;;;;;;137.13;53.17;;;-9.80;99.90;;;;;;8230328;28;20216;-66
2024/01/11 01:27:14;;;;;;;153.13;59.77;;;-9.80;99.90;;;;;;8227346;28;20198;-66
2024/01/11 01:31:14;;;;;;;174.17;62.83;;;-9.80;99.90;;;;;;8228115;28;20222;-66
2024/01/11 01:35:15;;;;;;;164.73;62.93;;;-9.70;99.90;;;;;;8229956;28;20191;-67
2024/01/11 01:39:16;;;;;;;141.03;56.87;;;-9.70;99.90;;;;;;8232592;28;20257;-66
2024/01/11 01:43:17;;;;;;;129.70;48.83;;;-9.80;99.90;;;;;;8231582;28;20194;-65
2024/01/11 01:47:18;;;;;;;117.20;48.30;;;-9.90;99.90;;;;;;8226876;28;20304;-65
2024/01/11 01:51:20;;;;;;;128.37;50.03;;;-10.10;99.90;;;;;;8229347;28;20211;-66
2024/01/11 01:55:20;;;;;;;127.10;49.57;;;-10.20;99.90;;;;;;8234971;28;20190;-66
2024/01/11 01:59:25;;;;;;;144.00;54.83;;;-10.00;99.90;;;;;;8235786;28;20229;-66
2024/01/11 02:03:28;;;;;;;120.20;49.27;;;-9.60;99.90;;;;;;8246117;28;20298;-66
2024/01/11 02:07:28;;;;;;;153.43;61.37;;;-9.40;99.90;;;;;;8231795;28;20254;-66
2024/01/11 02:11:30;;;;;;;161.40;64.53;;;-9.50;99.90;;;;;;8224788;28;20222;-66
2024/01/11 02:15:31;;;;;;;177.93;70.50;;;-9.70;99.90;;;;;;8233229;28;20533;-65
2024/01/11 02:19:33;;;;;;;176.93;66.20;;;-9.80;99.90;;;;;;8232988;28;20245;-63
2024/01/11 02:23:46;;;;;;;153.13;59.50;;;-10.00;99.90;;;;;;8253306;28;20191;-63
2024/01/11 02:27:48;;;;;;;130.53;51.30;;;-10.20;99.90;;;;;;8251361;28;20188;-64
2024/01/11 02:31:49;;;;;;;109.23;44.83;;;-10.30;99.90;;;;;;8254281;28;20218;-64
2024/01/11 02:35:50;;;;;;;139.30;48.97;;;-10.30;99.90;;;;;;8251484;28;20257;-65
2024/01/11 02:39:51;;;;;;;123.47;49.20;;;-10.30;99.90;;;;;;8245157;28;20202;-64
2024/01/11 02:43:58;;;;;;;109.33;42.93;;;-10.20;99.90;;;;;;8250234;28;20194;-64
2024/01/11 02:47:59;;;;;;;99.17;42.90;;;-10.20;99.90;;;;;;8248881;28;20195;-64
2024/01/11 02:52:00;;;;;;;86.80;38.80;;;-10.20;99.90;;;;;;8250938;28;20210;-65
2024/01/11 02:56:03;;;;;;;89.13;37.20;;;-10.10;99.90;;;;;;8248448;28;20203;-64
2024/01/11 03:00:05;;;;;;;94.43;38.40;;;-9.70;99.90;;;;;;8244905;28;20205;-64
2024/01/11 03:04:06;;;;;;;83.00;37.03;;;-9.30;99.90;;;;;;8249673;28;20196;-64
2024/01/11 03:08:07;;;;;;;87.30;34.87;;;-8.90;99.90;;;;;;8246589;28;20229;-65
2024/01/11 03:12:08;;;;;;;82.73;34.87;;;-8.60;99.90;;;;;;8245346;28;20238;-65
2024/01/11 03:16:09;;;;;;;86.47;34.03;;;-8.50;83.40;;;;;;8250761;28;20187;-65
2024/01/11 03:20:10;;;;;;;91.57;36.80;;;-8.50;68.10;;;;;;8247195;28;20191;-66
2024/01/11 03:24:11;;;;;;;71.60;34.47;;;-8.50;55.70;;;;;;8248008;28;20199;-66
2024/01/11 03:28:11;;;;;;;80.83;33.93;;;-8.50;45.10;;;;;;8232170;28;20187;-66
2024/01/11 03:32:13;;;;;;;73.63;33.00;;;-8.50;42.70;;;;;;8225439;28;20222;-66
2024/01/11 03:36:14;;;;;;;74.57;33.13;;;-8.40;39.20;;;;;;8227888;28;20632;-66
2024/01/11 03:40:15;;;;;;;80.20;33.43;;;-8.40;33.20;;;;;;8229388;28;20187;-66
2024/01/11 03:44:16;;;;;;;72.90;31.27;;;-8.30;26.70;;;;;;8227551;28;20184;-66
2024/01/11 03:48:19;;;;;;;78.57;35.57;;;-8.30;20.40;;;;;;8225996;28;20218;-65
2024/01/11 03:52:23;;;;;;;78.97;34.93;;;-8.30;34.80;;;;;;8231129;28;20206;-65
2024/01/11 03:56:24;;;;;;;87.77;37.20;;;-8.50;22.00;;;;;;8227841;28;20190;-65
2024/01/11 04:00:25;;;;;;;81.70;34.67;;;-8.60;24.70;;;;;;8227558;28;20227;-65
2024/01/11 04:04:25;;;;;;;88.70;35.67;;;-8.60;25.60;;;;;;8219416;28;20537;-65
2024/01/11 04:08:26;;;;;;;77.93;34.03;;;-8.70;25.70;;;;;;8229901;28;20230;-65
2024/01/11 04:12:27;;;;;;;73.40;31.60;;;-8.70;31.10;;;;;;8220262;28;20216;-64
2024/01/11 04:16:28;;;;;;;76.40;31.33;;;-8.70;31.10;;;;;;8222195;28;20190;-65
2024/01/11 04:20:28;;;;;;;60.60;29.30;;;-8.70;29.50;;;;;;8224268;28;20270;-66
2024/01/11 04:24:29;;;;;;;64.03;30.63;;;-8.70;28.10;;;;;;8231617;28;20183;-65
2024/01/11 04:28:31;;;;;;;67.43;28.53;;;-8.60;29.40;;;;;;8226718;28;20472;-65
2024/01/11 04:32:32;;;;;;;65.77;29.23;;;-8.40;29.70;;;;;;8224879;28;20203;-65
2024/01/11 04:36:33;;;;;;;60.87;26.93;;;-8.20;23.60;;;;;;8231081;28;20190;-65
2024/01/11 04:40:33;;;;;;;58.83;25.03;;;-8.10;14.70;;;;;;8226095;28;20194;-65
2024/01/11 04:44:34;;;;;;;57.87;27.13;;;-8.10;16.80;;;;;;8225569;28;20184;-65
2024/01/11 04:48:35;;;;;;;54.00;26.93;;;-8.00;16.30;;;;;;8224635;28;20234;-66
2024/01/11 04:52:35;;;;;;;57.67;26.70;;;-7.80;9.90;;;;;;8232326;28;20223;-65
2024/01/11 04:56:36;;;;;;;62.53;26.93;;;-7.60;1.00;;;;;;8224025;28;20187;-66
2024/01/11 05:00:37;;;;;;;64.23;27.83;;;-7.50;1.00;;;;;;8224280;28;20289;-66
2024/01/11 05:04:37;;;;;;;60.57;25.80;;;-7.20;1.00;;;;;;8221564;28;20184;-66
2024/01/11 05:08:38;;;;;;;51.20;25.00;;;-7.10;1.00;;;;;;8221933;28;20230;-66
2024/01/11 05:12:39;;;;;;;55.07;24.80;;;-6.90;6.70;;;;;;8234296;28;20309;-66
2024/01/11 05:16:41;;;;;;;56.00;25.10;;;-6.80;1.00;;;;;;8240695;28;20219;-66
2024/01/11 05:20:43;;;;;;;56.27;26.60;;;-6.70;1.00;;;;;;8231497;28;20215;-66
2024/01/11 05:24:44;;;;;;;62.83;27.13;;;-6.50;1.00;;;;;;8233016;28;20291;-64
2024/01/11 05:28:45;;;;;;;60.13;25.87;;;-6.60;1.00;;;;;;8218099;28;20202;-65
2024/01/11 05:32:46;;;;;;;57.50;25.80;;;-6.60;1.00;;;;;;8225475;28;20218;-65
2024/01/11 05:36:47;;;;;;;56.10;25.10;;;-6.60;1.00;;;;;;8222454;28;20192;-65
2024/01/11 05:40:47;;;;;;;57.33;26.13;;;-6.40;1.00;;;;;;8242137;28;20215;-65
2024/01/11 05:44:48;;;;;;;57.47;25.23;;;-6.20;1.00;;;;;;8228112;28;20197;-66
2024/01/11 05:48:49;;;;;;;53.90;24.73;;;-6.00;1.00;;;;;;8242204;28;20199;-65
2024/01/11 05:52:52;;;;;;;52.67;24.60;;;-5.80;1.00;;;;;;8237110;28;20623;-66
2024/01/11 05:56:55;;;;;;;58.83;27.00;;;-5.60;1.00;;;;;;8229150;28;20194;-66
2024/01/11 06:00:56;;;;;;;59.93;25.20;;;-5.60;1.00;;;;;;8228411;28;20278;-66
2024/01/11 06:04:57;;;;;;;47.83;24.03;;;-5.60;1.00;;;;;;8228575;28;20292;-65
2024/01/11 06:08:58;;;;;;;51.53;25.30;;;-5.60;1.00;;;;;;8228188;28;20205;-65
2024/01/11 06:12:59;;;;;;;50.13;24.93;;;-5.80;1.00;;;;;;8241378;28;20469;-66
2024/01/11 06:16:59;;;;;;;51.83;25.27;;;-5.80;1.00;;;;;;8230087;28;20230;-66
2024/01/11 06:21:00;;;;;;;55.40;25.93;;;-5.90;1.00;;;;;;8230901;28;20219;-67
2024/01/11 06:25:01;;;;;;;56.30;25.30;;;-5.90;1.00;;;;;;8228214;28;20279;-66
2024/01/11 06:29:02;;;;;;;54.33;26.27;;;-5.90;1.00;;;;;;8227631;28;20520;-67
2024/01/11 06:33:03;;;;;;;51.53;24.63;;;-5.80;1.00;;;;;;8226638;28;20249;-66
2024/01/11 06:37:04;;;;;;;55.53;25.37;;;-5.80;1.00;;;;;;8227726;28;20191;-66
2024/01/11 06:41:08;;;;;;;51.93;24.80;;;-5.80;1.00;;;;;;8228212;28;20195;-66
2024/01/11 06:45:09;;;;;;;58.63;24.97;;;-5.80;1.00;;;;;;8227258;28;20191;-65
2024/01/11 06:49:10;;;;;;;58.07;26.40;;;-5.70;1.00;;;;;;8243426;28;20195;-66
2024/01/11 06:53:10;;;;;;;52.23;25.73;;;-5.60;1.00;;;;;;8233749;28;20225;-65
2024/01/11 06:57:11;;;;;;;61.53;26.90;;;-5.60;1.00;;;;;;8233110;28;20193;-66
2024/01/11 07:01:12;;;;;;;52.33;25.13;;;-5.60;1.00;;;;;;8230855;28;20217;-65
2024/01/11 07:05:13;;;;;;;50.83;24.67;;;-5.60;1.00;;;;;;8233465;28;20193;-66
2024/01/11 07:09:14;;;;;;;59.13;25.80;;;-5.60;1.00;;;;;;8250193;28;20233;-66
2024/01/11 07:13:16;;;;;;;57.63;27.43;;;-5.60;1.00;;;;;;8230778;28;20321;-66
2024/01/11 07:17:18;;;;;;;51.93;26.33;;;-5.60;1.00;;;;;;8230141;28;20213;-66
2024/01/11 07:21:29;;;;;;;52.13;26.13;;;-5.70;1.00;;;;;;8239597;28;20204;-66
2024/01/11 07:25:30;;;;;;;57.97;28.37;;;-5.70;1.00;;;;;;8253690;28;20232;-66
2024/01/11 07:29:32;;;;;;;56.83;26.47;;;-5.70;1.00;;;;;;8248227;28;20191;-66
2024/01/11 07:33:32;;;;;;;52.57;24.87;;;-5.80;1.00;;;;;;8250224;28;20220;-67
2024/01/11 07:37:33;;;;;;;52.23;24.60;;;-5.80;1.00;;;;;;8251294;28;20214;-67
2024/01/11 07:41:40;;;;;;;54.07;25.60;;;-5.90;1.00;;;;;;8254541;28;20193;-66
2024/01/11 07:45:41;;;;;;;55.73;25.30;;;-5.90;1.00;;;;;;8269981;28;20196;-66
2024/01/11 07:49:42;;;;;;;47.43;23.63;;;-6.00;1.00;;;;;;8270747;28;20195;-65
2024/01/11 07:53:44;;;;;;;45.17;21.40;;;-6.00;1.00;;;;;;8251577;28;20208;-66
2024/01/11 07:57:47;;;;;;;46.63;23.60;;;-5.90;1.00;;;;;;8243833;28;20229;-66
2024/01/11 08:01:52;;;;;;;43.20;23.53;;;-5.90;1.00;;;;;;8261525;28;20196;-66
2024/01/11 08:05:53;;;;;;;54.00;25.97;;;-5.70;1.00;;;;;;8246353;28;20230;-65
2024/01/11 08:09:54;;;;;;;51.30;24.20;;;-5.50;1.00;;;;;;8244221;28;20208;-66
2024/01/11 08:13:55;;;;;;;54.10;24.63;;;-5.20;1.00;;;;;;8248389;28;20268;-67
2024/01/11 08:18:00;;;;;;;54.87;25.70;;;-5.00;1.00;;;;;;8244078;28;20518;-67
2024/01/11 08:22:02;;;;;;;45.47;22.47;;;-4.80;1.00;;;;;;8258742;28;20191;-66
2024/01/11 08:26:03;;;;;;;50.00;23.87;;;-4.60;1.00;;;;;;8259877;28;20202;-66
2024/01/11 08:30:05;;;;;;;49.63;24.27;;;-4.40;1.00;;;;;;8247248;28;20185;-67
2024/01/11 08:34:06;;;;;;;46.17;23.80;;;-4.20;1.00;;;;;;8242645;28;20305;-67
2024/01/11 08:38:06;;;;;;;48.20;23.70;;;-4.20;1.00;;;;;;8248679;28;20194;-67
2024/01/11 08:42:07;;;;;;;44.97;24.20;;;-4.20;1.00;;;;;;8246420;28;20191;-66
2024/01/11 08:46:08;;;;;;;46.33;23.07;;;-4.10;1.00;;;;;;8248633;28;20186;-69
2024/01/11 08:50:13;;;;;;;48.80;23.37;;;-4.10;1.00;;;;;;8241879;28;20206;-66
2024/01/11 08:54:16;;;;;;;45.60;21.43;;;-4.10;1.00;;;;;;8247838;28;20318;-67
2024/01/11 08:58:16;;;;;;;47.27;24.30;;;-4.00;1.00;;;;;;8242800;28;21813;-68
2024/01/11 09:02:17;;;;;;;47.43;22.83;;;-4.10;1.00;;;;;;8244360;28;20188;-67
2024/01/11 09:06:18;;;;;;;51.17;24.70;;;-4.10;1.00;;;;;;8262596;28;20233;-68
2024/01/11 09:10:19;;;;;;;43.30;22.73;;;-4.10;1.00;;;;;;8267263;28;20653;-68
2024/01/11 09:14:20;;;;;;;46.37;22.77;;;-4.20;1.00;;;;;;8245514;28;20218;-68
2024/01/11 09:18:21;;;;;;;48.97;22.83;;;-4.20;1.00;;;;;;8240702;28;20183;-67
2024/01/11 09:22:22;;;;;;;52.13;24.20;;;-4.10;1.00;;;;;;8259095;28;20188;-68
2024/01/11 09:26:22;;;;;;;51.30;23.00;;;-4.10;1.00;;;;;;8240571;28;20195;-67
2024/01/11 09:30:23;;;;;;;50.43;23.07;;;-4.10;1.00;;;;;;8236302;28;20215;-68
2024/01/11 09:34:24;;;;;;;37.30;20.43;;;-3.90;1.00;;;;;;8240723;28;20237;-67
2024/01/11 09:38:25;;;;;;;44.80;22.53;;;-3.80;1.00;;;;;;8247400;28;20198;-66
2024/01/11 09:42:25;;;;;;;42.00;20.83;;;-3.70;1.00;;;;;;8258434;28;20191;-66
2024/01/11 09:46:28;;;;;;;42.93;21.17;;;-3.60;1.00;;;;;;8257527;28;20188;-66
2024/01/11 09:50:29;;;;;;;38.70;19.90;;;-3.50;1.00;;;;;;8243790;28;20188;-67
2024/01/11 09:54:31;;;;;;;39.57;20.67;;;-3.30;1.00;;;;;;8239168;28;20231;-67
2024/01/11 09:58:36;;;;;;;38.43;18.90;;;-3.10;1.00;;;;;;8247632;28;20258;-67
2024/01/11 10:02:40;;;;;;;37.70;19.37;;;-2.90;1.00;;;;;;8239526;28;20223;-68
2024/01/11 10:06:41;;;;;;;38.97;18.77;;;-2.90;1.00;;;;;;8259491;28;20191;-69
2024/01/11 10:10:42;;;;;;;41.23;20.00;;;-2.80;1.00;;;;;;8242669;28;20199;-69
2024/01/11 10:14:43;;;;;;;35.77;18.73;;;-2.70;1.00;;;;;;8247002;28;20266;-66
2024/01/11 10:18:44;;;;;;;42.27;20.17;;;-2.60;1.00;;;;;;8247985;28;20198;-66
2024/01/11 10:22:47;;;;;;;36.77;20.07;;;-2.70;1.00;;;;;;8243862;28;20184;-67
2024/01/11 10:26:48;;;;;;;39.07;17.90;;;-2.70;1.00;;;;;;8242580;28;20271;-67
2024/01/11 10:30:51;;;;;;;35.70;17.97;;;-2.50;1.00;;;;;;8246361;28;20187;-67
2024/01/11 10:34:52;;;;;;;35.93;18.33;;;-2.40;1.00;;;;;;8244764;28;20184;-68
2024/01/11 10:38:56;;;;;;;36.20;18.13;;;-2.50;1.00;;;;;;8244958;28;20183;-69
2024/01/11 10:43:01;;;;;;;35.30;18.07;;;-2.40;1.00;;;;;;8242470;28;20287;-68
2024/01/11 10:47:07;;;;;;;37.73;18.70;;;-2.40;1.00;;;;;;8242281;28;20310;-67
2024/01/11 10:51:12;;;;;;;35.17;19.07;;;-2.30;1.00;;;;;;8243059;28;20212;-68
2024/01/11 10:55:13;;;;;;;39.97;19.80;;;-2.40;1.00;;;;;;8243578;28;20330;-68
2024/01/11 10:59:14;;;;;;;36.70;19.20;;;-2.40;1.00;;;;;;8260120;28;20214;-67
2024/01/11 11:03:17;;;;;;;40.37;18.80;;;-2.50;1.00;;;;;;8246248;28;20190;-68
2024/01/11 11:07:18;;;;;;;37.30;18.87;;;-2.60;1.00;;;;;;8241129;28;20189;-66
2024/01/11 11:11:20;;;;;;;43.10;19.87;;;-2.70;1.00;;;;;;8245212;28;20212;-66
2024/01/11 11:15:23;;;;;;;37.13;19.37;;;-2.80;1.00;;;;;;8244231;28;20183;-67
2024/01/11 11:19:25;;;;;;;42.00;20.87;;;-2.80;1.00;;;;;;8242612;28;20215;-68
2024/01/11 11:23:26;;;;;;;41.03;18.73;;;-2.70;1.00;;;;;;8240009;28;20184;-67
2024/01/11 11:27:27;;;;;;;35.63;17.80;;;-2.60;1.00;;;;;;8259697;28;20203;-66
2024/01/11 11:31:39;;;;;;;40.80;19.87;;;-2.40;1.00;;;;;;8240467;28;20222;-69
2024/01/11 11:35:40;;;;;;;35.60;18.50;;;-2.30;1.00;;;;;;8241084;28;20284;-68
2024/01/11 11:39:42;;;;;;;35.17;19.10;;;-2.30;1.00;;;;;;8241271;28;20176;-68
2024/01/11 11:43:47;;;;;;;41.27;20.60;;;-2.40;1.00;;;;;;8241258;28;20196;-69
2024/01/11 11:47:48;;;;;;;39.83;19.00;;;-2.30;1.00;;;;;;8239595;28;20202;-68
2024/01/11 11:51:49;;;;;;;36.27;18.63;;;-2.20;1.00;;;;;;8241760;28;20240;-68
2024/01/11 11:55:51;;;;;;;40.93;20.03;;;-2.20;1.00;;;;;;8241145;28;20188;-68
2024/01/11 11:59:53;;;;;;;37.07;19.93;;;-2.20;1.00;;;;;;8237852;28;20322;-67
2024/01/11 12:04:02;;;;;;;40.40;20.30;;;-2.20;1.00;;;;;;8236534;28;20188;-68
2024/01/11 12:08:03;;;;;;;36.30;19.10;;;-2.30;1.00;;;;;;8257559;28;20283;-68
2024/01/11 12:12:05;;;;;;;36.90;19.37;;;-2.30;1.00;;;;;;8255660;28;20235;-68
2024/01/11 12:16:05;;;;;;;34.93;19.33;;;-2.40;1.00;;;;;;8237373;28;20334;-69
2024/01/11 12:20:06;;;;;;;44.63;19.60;;;-2.40;1.00;;;;;;8254976;28;20180;-68
2024/01/11 12:24:07;;;;;;;36.27;19.23;;;-2.50;1.00;;;;;;8242117;28;20412;-67
2024/01/11 12:28:09;;;;;;;37.13;19.33;;;-2.60;1.00;;;;;;8237432;28;20283;-67
2024/01/11 12:32:15;;;;;;;40.67;19.70;;;-2.70;1.00;;;;;;8240243;28;20358;-68
2024/01/11 12:36:16;;;;;;;35.77;18.67;;;-2.80;1.00;;;;;;8240588;28;20191;-67
2024/01/11 12:40:17;;;;;;;40.97;19.23;;;-2.70;1.00;;;;;;8239140;28;20188;-68
2024/01/11 12:44:21;;;;;;;43.53;20.27;;;-2.80;1.00;;;;;;8242697;28;20234;-67
2024/01/11 12:48:25;;;;;;;42.77;20.93;;;-2.90;1.00;;;;;;8238781;28;20250;-67
2024/01/11 12:52:27;;;;;;;42.67;20.63;;;-2.70;1.00;;;;;;8220985;28;20216;-67
2024/01/11 12:56:28;;;;;;;35.43;20.30;;;-2.70;1.00;;;;;;8233954;28;20342;-68
2024/01/11 13:00:29;;;;;;;41.97;21.20;;;-2.70;1.00;;;;;;8235684;28;20199;-69
2024/01/11 13:04:29;;;;;;;37.47;20.27;;;-2.70;1.00;;;;;;8230056;28;20198;-67
2024/01/11 13:08:36;;;;;;;40.50;20.03;;;-2.80;1.00;;;;;;8230209;28;20267;-68
2024/01/11 13:12:36;;;;;;;39.60;20.83;;;-2.70;1.00;;;;;;8227574;28;20241;-68
2024/01/11 13:16:37;;;;;;;43.20;20.57;;;-2.60;1.00;;;;;;8230902;28;20192;-69
2024/01/11 13:20:38;;;;;;;45.00;20.73;;;-2.50;1.00;;;;;;8234783;28;20195;-69
2024/01/11 13:24:39;;;;;;;43.57;22.87;;;-2.50;1.00;;;;;;8233672;28;20671;-67
2024/01/11 13:28:40;;;;;;;40.40;21.23;;;-2.50;1.00;;;;;;8226845;28;20198;-69
2024/01/11 13:32:41;;;;;;;45.30;21.70;;;-2.40;1.00;;;;;;8232091;28;20215;-65
2024/01/11 13:36:42;;;;;;;41.87;20.53;;;-2.40;1.00;;;;;;8237056;28;20219;-69
2024/01/11 13:40:43;;;;;;;45.00;22.23;;;-2.40;1.00;;;;;;8240748;28;20267;-67
2024/01/11 13:44:44;;;;;;;42.30;21.20;;;-2.30;1.00;;;;;;8237695;28;20199;-67
2024/01/11 13:48:45;;;;;;;42.13;21.43;;;-2.30;1.00;;;;;;8240710;28;20214;-69
2024/01/11 13:52:46;;;;;;;43.47;22.57;;;-2.30;1.00;;;;;;8238549;28;20216;-66
2024/01/11 13:56:47;;;;;;;38.20;21.43;;;-2.40;1.00;;;;;;8236783;28;20282;-68
2024/01/11 14:00:50;;;;;;;45.17;22.17;;;-2.50;1.00;;;;;;8231631;28;20230;-68
2024/01/11 14:04:51;;;;;;;40.43;22.30;;;-2.60;1.00;;;;;;8241461;28;20267;-68
2024/01/11 14:08:51;;;;;;;46.87;23.93;;;-2.70;1.00;;;;;;8234866;28;20215;-68
2024/01/11 14:12:52;;;;;;;42.17;21.93;;;-2.70;1.00;;;;;;8240296;28;20219;-68
2024/01/11 14:16:53;;;;;;;46.67;21.87;;;-2.70;1.00;;;;;;8238414;28;20187;-68
2024/01/11 14:20:54;;;;;;;42.43;21.13;;;-2.80;1.00;;;;;;8241681;28;20195;-68
2024/01/11 14:24:54;;;;;;;38.80;22.23;;;-2.80;1.00;;;;;;8245437;28;20191;-68
2024/01/11 14:28:56;;;;;;;46.30;23.10;;;-2.80;1.00;;;;;;8242877;28;20234;-68
2024/01/11 14:32:57;;;;;;;38.13;19.23;;;-2.90;1.00;;;;;;8247668;28;20219;-69
2024/01/11 14:36:58;;;;;;;33.97;18.17;;;-2.90;1.00;;;;;;8242245;28;20268;-68
2024/01/11 14:41:02;;;;;;;33.37;18.17;;;-3.00;1.00;;;;;;8248168;28;20192;-68
2024/01/11 14:45:04;;;;;;;35.17;18.67;;;-3.00;1.00;;;;;;8241087;28;20199;-67
2024/01/11 14:49:07;;;;;;;37.43;18.33;;;-2.90;1.00;;;;;;8248612;28;20188;-67
2024/01/11 14:53:08;;;;;;;36.40;18.60;;;-2.90;1.00;;;;;;8247703;28;20243;-67
2024/01/11 14:57:09;;;;;;;29.93;15.10;;;-3.00;1.00;;;;;;8246593;28;20191;-66
2024/01/11 15:01:10;;;;;;;29.97;14.67;;;-3.00;1.00;;;;;;8245829;28;20215;-67
2024/01/11 15:05:10;;;;;;;33.17;15.33;;;-3.00;1.00;;;;;;8228287;28;20302;-67
2024/01/11 15:09:15;;;;;;;28.57;15.63;;;-3.00;1.00;;;;;;8239264;28;20203;-68
2024/01/11 15:13:16;;;;;;;32.47;17.47;;;-3.00;1.00;;;;;;8251935;28;20204;-67
2024/01/11 15:17:18;;;;;;;31.93;15.60;;;-3.00;1.00;;;;;;8243641;28;20187;-67
2024/01/11 15:21:19;;;;;;;28.27;14.50;;;-3.00;1.00;;;;;;8244442;28;20276;-66
2024/01/11 15:25:20;;;;;;;27.73;14.93;;;-3.00;1.00;;;;;;8259281;28;20200;-67
2024/01/11 15:29:21;;;;;;;27.07;14.13;;;-3.10;1.00;;;;;;8238828;28;20527;-67
2024/01/11 15:33:22;;;;;;;24.83;13.13;;;-3.10;1.00;;;;;;8238896;28;20763;-66
2024/01/11 15:37:25;;;;;;;24.37;13.93;;;-3.10;1.00;;;;;;8239389;28;20350;-67
2024/01/11 15:41:26;;;;;;;24.43;13.27;;;-3.10;1.00;;;;;;8238763;28;20184;-68
2024/01/11 15:45:27;;;;;;;24.77;13.30;;;-3.20;1.70;;;;;;8229729;28;20205;-68
2024/01/11 15:49:27;;;;;;;24.10;13.47;;;-3.20;22.50;;;;;;8230765;28;20215;-67
2024/01/11 15:53:29;;;;;;;24.17;13.13;;;-3.20;52.20;;;;;;8233981;28;20289;-67
2024/01/11 15:57:30;;;;;;;29.07;12.47;;;-3.20;91.90;;;;;;8237924;28;20226;-67
2024/01/11 16:01:32;;;;;;;23.67;11.57;;;-3.20;99.90;;;;;;8232295;28;20222;-68
2024/01/11 16:05:36;;;;;;;23.10;11.70;;;-3.20;99.90;;;;;;8227644;28;20191;-67
2024/01/11 16:09:37;;;;;;;20.97;11.87;;;-3.30;99.90;;;;;;8225867;28;20214;-67
2024/01/11 16:13:40;;;;;;;19.20;11.00;;;-3.30;99.90;;;;;;8228085;28;20626;-66
2024/01/11 16:17:41;;;;;;;19.90;11.00;;;-3.30;99.90;;;;;;8225148;28;20218;-68
2024/01/11 16:21:42;;;;;;;25.97;12.40;;;-3.30;99.90;;;;;;8246043;28;20187;-68
2024/01/11 16:25:43;;;;;;;26.77;12.17;;;-3.30;1.00;;;;;;8222612;28;20191;-69
2024/01/11 16:29:44;;;;;;;22.03;11.50;;;-3.30;1.00;;;;;;8226891;28;20195;-69
2024/01/11 16:33:46;;;;;;;24.67;12.03;;;-3.30;68.00;;;;;;8231191;28;20246;-70
2024/01/11 16:37:47;;;;;;;25.00;12.60;;;-3.30;99.90;;;;;;8232430;28;20194;-68
2024/01/11 16:41:48;;;;;;;25.20;12.20;;;-3.30;99.90;;;;;;8227040;28;20465;-69
2024/01/11 16:45:49;;;;;;;22.73;12.33;;;-3.30;1.00;;;;;;8226020;28;20269;-68
2024/01/11 16:49:49;;;;;;;24.57;12.70;;;-3.20;1.00;;;;;;8229553;28;20224;-67
2024/01/11 16:53:50;;;;;;;25.43;13.63;;;-3.20;1.00;;;;;;8228274;28;20219;-69
2024/01/11 16:57:51;;;;;;;24.60;12.87;;;-3.30;99.90;;;;;;8224411;28;20187;-67
2024/01/11 17:01:52;;;;;;;30.43;13.73;;;-3.30;1.00;;;;;;8239863;28;20191;-68
2024/01/11 17:05:53;;;;;;;23.17;12.57;;;-3.30;52.70;;;;;;8225236;28;20519;-67
2024/01/11 17:09:56;;;;;;;28.23;14.10;;;-3.30;99.90;;;;;;8237824;28;20196;-68
2024/01/11 17:13:57;;;;;;;29.70;14.43;;;-3.30;99.90;;;;;;8223270;28;20319;-68
2024/01/11 17:17:58;;;;;;;29.90;14.73;;;-3.30;99.90;;;;;;8250402;28;20414;-67
2024/01/11 17:22:01;;;;;;;29.20;14.47;;;-3.30;1.00;;;;;;8223647;28;20187;-66
2024/01/11 17:26:04;;;;;;;31.33;14.83;;;-3.30;1.00;;;;;;8226462;28;20187;-69
2024/01/11 17:30:07;;;;;;;27.93;15.37;;;-3.30;99.90;;;;;;8223901;28;20193;-68
2024/01/11 17:34:08;;;;;;;33.00;15.80;;;-3.30;54.40;;;;;;8226586;28;20215;-68
2024/01/11 17:38:11;;;;;;;27.03;15.23;;;-3.30;1.00;;;;;;8229236;28;20253;-69
2024/01/11 17:42:12;;;;;;;29.67;15.23;;;-3.30;1.00;;;;;;8224468;28;20187;-68
2024/01/11 17:46:12;;;;;;;29.87;17.27;;;-3.30;1.00;;;;;;8225889;28;20278;-68
2024/01/11 17:50:13;;;;;;;30.13;16.70;;;-3.30;1.00;;;;;;8227839;28;20545;-70
2024/01/11 17:54:14;;;;;;;30.00;16.60;;;-3.30;1.00;;;;;;8247434;28;20215;-69
2024/01/11 17:58:15;;;;;;;29.80;15.63;;;-3.30;1.00;;;;;;8229643;28;20228;-70
2024/01/11 18:02:16;;;;;;;37.00;17.77;;;-3.30;1.00;;;;;;8240379;28;20238;-68
2024/01/11 18:06:17;;;;;;;30.50;16.17;;;-3.20;1.00;;;;;;8229103;28;20195;-68
2024/01/11 18:10:20;;;;;;;36.17;16.57;;;-3.20;1.00;;;;;;8229996;28;20207;-69
2024/01/11 18:14:21;;;;;;;31.67;16.07;;;-3.20;1.00;;;;;;8239055;28;20227;-69
2024/01/11 18:18:22;;;;;;;33.00;17.23;;;-3.20;1.00;;;;;;8235292;28;20180;-69
2024/01/11 18:22:25;;;;;;;31.13;15.87;;;-3.20;1.00;;;;;;8237292;28;20242;-71
2024/01/11 18:26:27;;;;;;;39.67;19.50;;;-3.20;99.90;;;;;;8235638;28;20184;-68
2024/01/11 18:30:27;;;;;;;39.50;19.70;;;-3.20;99.90;;;;;;8236775;28;20196;-69
2024/01/11 18:34:28;;;;;;;38.00;17.77;;;-3.20;99.90;;;;;;8233819;28;20240;-69
2024/01/11 18:38:30;;;;;;;29.53;16.50;;;-3.20;99.90;;;;;;8237517;28;20195;-69
2024/01/11 18:42:31;;;;;;;31.83;15.83;;;-3.20;99.90;;;;;;8239085;28;20201;-69
2024/01/11 18:46:37;;;;;;;26.93;14.83;;;-3.20;99.90;;;;;;8237536;28;20215;-69
2024/01/11 18:50:38;;;;;;;27.83;14.10;;;-3.20;99.90;;;;;;8237970;28;20206;-69
2024/01/11 18:54:40;;;;;;;30.07;14.20;;;-3.20;99.90;;;;;;8254958;28;20226;-70
2024/01/11 18:58:42;;;;;;;31.60;14.23;;;-3.20;99.90;;;;;;8242696;28;20231;-69
2024/01/11 19:02:43;;;;;;;24.47;14.07;;;-3.20;99.90;;;;;;8242003;28;20192;-69
2024/01/11 19:06:44;;;;;;;25.87;14.17;;;-3.30;99.90;;;;;;8229324;28;20271;-70
2024/01/11 19:10:45;;;;;;;26.23;13.60;;;-3.30;99.90;;;;;;8233171;28;20670;-70
2024/01/11 19:14:46;;;;;;;25.87;13.30;;;-3.20;99.90;;;;;;8235020;28;20259;-69
2024/01/11 19:18:47;;;;;;;20.27;11.27;;;-3.20;99.90;;;;;;8234084;28;20198;-69
2024/01/11 19:22:49;;;;;;;23.47;11.67;;;-3.30;99.90;;;;;;8238222;28;20238;-68
2024/01/11 19:26:50;;;;;;;25.90;11.57;;;-3.30;99.90;;;;;;8233622;28;20242;-68
2024/01/11 19:30:53;;;;;;;20.23;11.03;;;-3.30;99.90;;;;;;8236889;28;20199;-68
2024/01/11 19:34:54;;;;;;;21.97;11.73;;;-3.30;99.90;;;;;;8230639;28;20337;-66
2024/01/11 19:39:00;;;;;;;18.37;10.83;;;-3.30;99.90;;;;;;8229811;28;20257;-68
2024/01/11 19:43:01;;;;;;;18.53;10.53;;;-3.30;99.90;;;;;;8236497;28;20192;-69
2024/01/11 19:47:02;;;;;;;20.63;11.23;;;-3.30;99.90;;;;;;8248633;28;20195;-69
2024/01/11 19:51:08;;;;;;;22.73;11.57;;;-3.30;99.90;;;;;;8236144;28;20196;-69
2024/01/11 19:55:13;;;;;;;15.43;10.00;;;-3.30;99.90;;;;;;8234887;28;20191;-69
2024/01/11 19:59:16;;;;;;;21.23;10.57;;;-3.30;99.90;;;;;;8232845;28;20215;-70
2024/01/11 20:03:17;;;;;;;18.77;10.07;;;-3.30;99.90;;;;;;8231636;28;20195;-69
2024/01/11 20:07:20;;;;;;;16.97;9.77;;;-3.20;99.90;;;;;;8226614;28;20195;-68
2024/01/11 20:11:21;;;;;;;22.87;11.30;;;-3.20;99.90;;;;;;8235103;28;20207;-69
2024/01/11 20:15:22;;;;;;;24.93;11.27;;;-3.20;99.90;;;;;;8235604;28;20278;-69
2024/01/11 20:19:23;;;;;;;19.47;10.40;;;-3.20;1.00;;;;;;8235940;28;20195;-69
2024/01/11 20:23:25;;;;;;;20.83;10.83;;;-3.30;1.00;;;;;;8233846;28;20192;-70
2024/01/11 20:27:26;;;;;;;19.83;11.00;;;-3.30;1.00;;;;;;8235912;28;20203;-69
2024/01/11 20:31:27;;;;;;;29.97;12.50;;;-3.30;94.50;;;;;;8230329;28;20253;-69